createdAt,value
2022-07-26T00:01:38.537Z,1.80
2022-07-26T00:04:09.765Z,1.90
2022-07-26T00:06:40.718Z,1.60
2022-07-26T00:09:11.760Z,1.87
2022-07-26T00:11:42.753Z,1.20
2022-07-26T00:14:13.656Z,1.30
2022-07-26T00:16:44.958Z,1.40
2022-07-26T00:19:16.850Z,1.60
2022-07-26T00:30:14.190Z,1.20
2022-07-26T00:32:45.401Z,1.33
2022-07-26T00:35:16.572Z,1.63
2022-07-26T00:37:48.555Z,1.80
2022-07-26T00:40:19.775Z,1.30
2022-07-26T00:42:50.823Z,1.30
2022-07-26T00:45:21.771Z,1.17
2022-07-26T00:47:52.909Z,1.33
2022-07-26T00:50:23.822Z,1.50
2022-07-26T00:52:55.145Z,1.10
2022-07-26T00:55:26.134Z,1.40
2022-07-26T00:57:57.167Z,1.47
2022-07-26T01:00:28.863Z,1.13
2022-07-26T01:03:00.547Z,1.20
2022-07-26T01:05:32.788Z,1.00
2022-07-26T01:08:03.988Z,1.40
2022-07-26T01:10:34.863Z,1.23
2022-07-26T01:13:06.067Z,1.57
2022-07-26T01:15:36.970Z,1.53
2022-07-26T01:18:07.857Z,2.03
2022-07-26T01:20:39.309Z,2.20
2022-07-26T01:23:10.253Z,2.27
2022-07-26T01:25:43.703Z,2.00
2022-07-26T01:28:20.132Z,2.43
2022-07-26T01:30:51.368Z,2.73
2022-07-26T01:33:22.925Z,3.00
2022-07-26T01:35:54.270Z,3.50
2022-07-26T01:38:26.582Z,3.20
2022-07-26T01:40:57.449Z,2.80
2022-07-26T01:43:28.330Z,2.90
2022-07-26T01:45:59.802Z,3.17
2022-07-26T01:48:31.431Z,3.57
2022-07-26T01:51:03.099Z,3.30
2022-07-26T01:53:34.464Z,3.83
2022-07-26T01:56:06.184Z,3.73
2022-07-26T01:58:37.041Z,4.07
2022-07-26T02:01:08.904Z,3.30
2022-07-26T02:03:39.915Z,4.07
2022-07-26T02:06:10.803Z,4.30
2022-07-26T02:08:45.078Z,3.87
2022-07-26T02:11:16.001Z,3.53
2022-07-26T02:13:49.996Z,3.93
2022-07-26T02:16:24.184Z,3.47
2022-07-26T02:18:55.123Z,4.37
2022-07-26T02:21:25.979Z,4.10
2022-07-26T02:23:56.910Z,3.63
2022-07-26T02:26:27.783Z,3.70
2022-07-26T02:28:58.643Z,3.60
2022-07-26T02:31:32.475Z,3.63
2022-07-26T02:34:03.457Z,3.63
2022-07-26T02:36:34.618Z,3.53
2022-07-26T02:39:05.622Z,3.77
2022-07-26T02:41:36.956Z,4.03
2022-07-26T02:44:09.494Z,3.70
2022-07-26T02:46:40.692Z,3.80
2022-07-26T02:49:11.717Z,3.20
2022-07-26T02:51:42.738Z,3.60
2022-07-26T02:54:14.522Z,3.13
2022-07-26T02:56:45.480Z,3.50
2022-07-26T02:59:16.414Z,3.43
2022-07-26T03:01:47.514Z,3.20
2022-07-26T03:04:18.633Z,3.30
2022-07-26T03:06:49.795Z,3.40
2022-07-26T03:09:20.674Z,3.30
2022-07-26T03:11:52.047Z,3.50
2022-07-26T03:14:22.972Z,3.23
2022-07-26T03:16:54.019Z,3.50
2022-07-26T03:19:24.952Z,3.10
2022-07-26T03:21:55.904Z,2.97
2022-07-26T03:24:26.867Z,3.10
2022-07-26T03:26:57.822Z,2.97
2022-07-26T03:29:28.762Z,3.07
2022-07-26T03:31:59.742Z,3.33
2022-07-26T03:34:30.714Z,3.00
2022-07-26T03:37:01.686Z,3.00
2022-07-26T03:39:32.722Z,3.27
2022-07-26T03:42:04.902Z,3.13
2022-07-26T03:44:36.031Z,2.37
2022-07-26T03:47:06.999Z,2.03
2022-07-26T03:49:38.070Z,2.50
2022-07-26T03:52:10.831Z,2.77
2022-07-26T03:54:41.944Z,2.30
2022-07-26T03:57:12.897Z,2.60
2022-07-26T03:59:43.902Z,2.50
2022-07-26T04:02:14.867Z,2.93
2022-07-26T04:04:45.903Z,2.90
2022-07-26T04:07:17.498Z,2.90
2022-07-26T04:09:49.253Z,2.73
2022-07-26T04:12:20.145Z,3.10
2022-07-26T04:14:51.070Z,2.50
2022-07-26T04:17:22.088Z,3.10
2022-07-26T04:19:53.055Z,2.87
2022-07-26T04:22:24.145Z,2.60
2022-07-26T04:24:55.065Z,2.70
2022-07-26T04:27:41.074Z,3.00
2022-07-26T04:30:15.487Z,3.50
2022-07-26T04:32:46.979Z,3.30
2022-07-26T04:35:17.987Z,2.93
2022-07-26T04:37:48.969Z,3.03
2022-07-26T04:40:23.729Z,3.80
2022-07-26T04:42:55.291Z,3.13
2022-07-26T04:45:26.576Z,2.80
2022-07-26T04:47:58.546Z,3.17
2022-07-26T04:50:30.513Z,2.80
2022-07-26T04:53:02.902Z,3.40
2022-07-26T04:55:33.845Z,2.77
2022-07-26T04:58:05.213Z,3.30
2022-07-26T05:00:56.518Z,3.00
2022-07-26T05:03:28.331Z,3.57
2022-07-26T05:05:59.311Z,3.37
2022-07-26T05:08:30.244Z,3.63
2022-07-26T05:11:01.416Z,4.20
2022-07-26T05:13:32.402Z,4.80
2022-07-26T05:16:03.447Z,4.80
2022-07-26T05:18:45.846Z,5.30
2022-07-26T05:21:19.956Z,5.57
2022-07-26T05:23:50.943Z,4.60
2022-07-26T05:26:22.034Z,4.67
2022-07-26T05:28:54.259Z,4.00
2022-07-26T05:31:25.774Z,3.70
2022-07-26T05:33:56.876Z,3.20
2022-07-26T05:36:27.816Z,2.70
2022-07-26T05:38:59.978Z,3.67
2022-07-26T05:41:31.051Z,3.60
2022-07-26T05:44:03.166Z,3.57
2022-07-26T05:46:34.230Z,2.93
2022-07-26T05:49:05.856Z,3.50
2022-07-26T05:51:36.802Z,2.33
2022-07-26T05:54:08.240Z,2.97
2022-07-26T05:56:39.442Z,3.37
2022-07-26T05:59:10.649Z,3.50
2022-07-26T06:01:41.623Z,3.20
2022-07-26T06:04:13.499Z,2.80
2022-07-26T06:06:44.770Z,2.40
2022-07-26T06:09:15.893Z,2.50
2022-07-26T06:11:46.990Z,2.50
2022-07-26T06:14:18.695Z,2.40
2022-07-26T06:16:50.043Z,1.97
2022-07-26T06:19:21.122Z,2.50
2022-07-26T06:21:52.234Z,1.90
2022-07-26T06:24:23.840Z,1.63
2022-07-26T06:27:05.048Z,1.70
2022-07-26T06:29:36.510Z,1.60
2022-07-26T06:32:07.706Z,1.93
2022-07-26T06:34:38.841Z,1.73
2022-07-26T06:37:09.829Z,1.60
2022-07-26T06:39:40.898Z,1.60
2022-07-26T06:42:11.843Z,1.50
2022-07-26T06:44:44.237Z,1.33
2022-07-26T06:47:15.227Z,1.50
2022-07-26T06:49:46.176Z,1.37
2022-07-26T06:52:17.146Z,1.30
2022-07-26T06:54:48.899Z,1.30
2022-07-26T06:57:19.893Z,1.50
2022-07-26T06:59:50.962Z,1.03
2022-07-26T07:02:22.102Z,1.37
2022-07-26T07:04:53.334Z,1.80
2022-07-26T07:07:24.452Z,1.10
2022-07-26T07:09:58.996Z,1.17
2022-07-26T07:12:30.000Z,1.00
2022-07-26T07:15:02.123Z,1.07
2022-07-26T07:17:33.252Z,0.97
2022-07-26T07:20:05.497Z,1.00
2022-07-26T07:22:36.579Z,1.10
2022-07-26T07:25:08.089Z,1.00
2022-07-26T07:27:39.772Z,1.00
2022-07-26T07:30:12.143Z,0.90
2022-07-26T07:32:44.038Z,0.83
2022-07-26T07:35:15.691Z,0.90
2022-07-26T07:37:52.837Z,0.90
2022-07-26T07:40:25.604Z,0.90
2022-07-26T07:42:57.889Z,0.80
2022-07-26T07:45:29.099Z,0.80
2022-07-26T07:48:00.185Z,1.00
2022-07-26T07:50:32.939Z,0.90
2022-07-26T07:53:05.102Z,1.00
2022-07-26T07:55:41.042Z,0.90
2022-07-26T07:58:20.491Z,1.10
2022-07-26T08:00:52.446Z,0.83
2022-07-26T08:03:24.027Z,0.90
2022-07-26T08:06:10.532Z,0.90
2022-07-26T08:08:41.695Z,1.00
2022-07-26T08:11:14.045Z,0.83
2022-07-26T08:13:47.939Z,0.80
2022-07-26T08:16:19.264Z,1.00
2022-07-26T08:18:57.889Z,0.80
2022-07-26T08:21:30.322Z,0.80
2022-07-26T08:24:01.344Z,0.70
2022-07-26T08:26:32.436Z,0.70
2022-07-26T08:29:03.823Z,0.80
2022-07-26T08:31:34.820Z,0.80
2022-07-26T08:34:05.800Z,0.80
2022-07-26T08:36:41.966Z,0.70
2022-07-26T08:39:20.677Z,1.00
2022-07-26T08:41:51.653Z,0.70
2022-07-26T08:44:22.679Z,0.80
2022-07-26T08:46:53.711Z,0.80
2022-07-26T08:49:24.980Z,0.70
2022-07-26T08:51:59.121Z,0.80
2022-07-26T08:54:30.108Z,0.63
2022-07-26T08:57:01.189Z,0.77
2022-07-26T08:59:32.357Z,1.20
2022-07-26T09:02:10.856Z,0.73
2022-07-26T09:04:46.392Z,0.60
2022-07-26T09:07:18.860Z,0.97
2022-07-26T09:10:04.043Z,1.00
2022-07-26T09:12:36.280Z,0.70
2022-07-26T09:15:18.794Z,0.90
2022-07-26T09:17:54.855Z,0.80
2022-07-26T09:20:29.515Z,0.90
2022-07-26T09:23:09.840Z,0.80
2022-07-26T09:25:44.011Z,1.00
2022-07-26T09:28:30.992Z,0.70
2022-07-26T09:31:05.310Z,0.80
2022-07-26T09:33:48.297Z,0.70
2022-07-26T09:36:19.806Z,0.70
2022-07-26T09:38:54.443Z,0.80
2022-07-26T09:41:27.307Z,0.70
2022-07-26T09:44:03.155Z,0.70
2022-07-26T09:46:36.377Z,0.70
2022-07-26T09:49:22.525Z,0.70
2022-07-26T09:51:54.650Z,0.90
2022-07-26T09:54:35.168Z,0.90
2022-07-26T09:57:06.267Z,0.93
2022-07-26T09:59:37.294Z,0.60
2022-07-26T10:02:08.688Z,0.67
2022-07-26T10:04:41.866Z,0.80
2022-07-26T10:07:12.879Z,0.83
2022-07-26T10:10:11.309Z,0.80
2022-07-26T10:12:45.427Z,0.80
2022-07-26T10:15:52.938Z,0.90
2022-07-26T10:18:39.297Z,0.83
2022-07-26T10:21:31.716Z,0.77
2022-07-26T10:24:03.779Z,0.70
2022-07-26T10:26:37.040Z,0.70
2022-07-26T10:29:17.221Z,0.80
2022-07-26T10:31:51.140Z,0.73
2022-07-26T10:34:38.937Z,0.80
2022-07-26T10:37:21.546Z,0.80
2022-07-26T10:40:16.813Z,0.80
2022-07-26T10:42:47.803Z,0.90
2022-07-26T10:45:22.215Z,0.70
2022-07-26T10:48:10.256Z,0.77
2022-07-26T10:50:46.724Z,0.63
2022-07-26T10:53:23.547Z,0.80
2022-07-26T10:55:58.368Z,0.70
2022-07-26T10:58:43.577Z,0.80
2022-07-26T11:01:14.702Z,0.63
2022-07-26T11:03:45.970Z,0.80
2022-07-26T11:06:19.642Z,0.80
2022-07-26T11:08:50.730Z,0.60
2022-07-26T11:11:33.220Z,0.70
2022-07-26T11:14:17.056Z,0.60
2022-07-26T11:16:50.525Z,0.70
2022-07-26T11:19:29.267Z,0.67
2022-07-26T11:22:01.087Z,0.60
2022-07-26T11:24:32.108Z,0.70
2022-07-26T11:27:04.627Z,0.70
2022-07-26T11:29:39.025Z,0.63
2022-07-26T11:32:21.971Z,0.63
2022-07-26T11:35:05.266Z,0.60
2022-07-26T11:37:36.377Z,0.60
2022-07-26T11:40:07.990Z,0.60
2022-07-26T11:42:39.074Z,0.70
2022-07-26T11:45:13.068Z,0.77
2022-07-26T11:47:44.147Z,0.60
2022-07-26T11:50:22.222Z,0.70
2022-07-26T11:52:54.237Z,0.80
2022-07-26T11:55:30.628Z,0.70
2022-07-26T11:58:06.439Z,0.50
2022-07-26T12:00:37.738Z,0.80
2022-07-26T12:03:08.746Z,0.67
2022-07-26T12:05:41.619Z,0.60
2022-07-26T12:08:12.800Z,0.70
2022-07-26T12:10:43.853Z,0.80
2022-07-26T12:13:16.332Z,0.60
2022-07-26T12:15:52.954Z,0.80
2022-07-26T12:18:26.403Z,0.90
2022-07-26T12:21:06.086Z,0.67
2022-07-26T12:23:49.691Z,0.70
2022-07-26T12:26:31.116Z,0.60
2022-07-26T12:29:21.620Z,0.80
2022-07-26T12:32:12.801Z,0.70
2022-07-26T12:35:07.571Z,0.60
2022-07-26T12:37:53.366Z,0.73
2022-07-26T12:40:30.362Z,0.70
2022-07-26T12:43:02.796Z,0.77
2022-07-26T12:45:35.593Z,0.63
2022-07-26T12:48:13.005Z,0.60
2022-07-26T12:50:43.984Z,0.73
2022-07-26T12:53:15.062Z,0.70
2022-07-26T12:55:46.109Z,0.50
2022-07-26T12:58:17.179Z,0.60
2022-07-26T13:00:48.252Z,0.57
2022-07-26T13:03:19.318Z,0.70
2022-07-26T13:05:50.366Z,0.63
2022-07-26T13:08:21.357Z,0.63
2022-07-26T13:10:55.597Z,0.60
2022-07-26T13:13:30.835Z,0.60
2022-07-26T13:16:06.676Z,0.60
2022-07-26T13:18:40.706Z,0.73
2022-07-26T13:21:12.044Z,0.67
2022-07-26T13:23:43.199Z,3.30
2022-07-26T13:26:14.154Z,0.90
2022-07-26T13:28:45.735Z,0.53
2022-07-26T13:31:21.307Z,0.70
2022-07-26T13:33:52.577Z,0.60
2022-07-26T13:36:23.591Z,0.50
2022-07-26T13:38:54.512Z,0.53
2022-07-26T13:41:25.493Z,0.53
2022-07-26T13:43:57.850Z,0.60
2022-07-26T13:46:33.612Z,0.63
2022-07-26T13:49:06.097Z,0.70
2022-07-26T13:51:57.086Z,0.70
2022-07-26T13:54:34.008Z,0.70
2022-07-26T13:57:07.673Z,0.80
2022-07-26T13:59:38.704Z,0.70
2022-07-26T14:02:09.768Z,0.70
2022-07-26T14:04:42.471Z,0.70
2022-07-26T14:07:13.508Z,0.63
2022-07-26T14:09:44.490Z,0.60
2022-07-26T14:12:16.324Z,0.70
2022-07-26T14:14:47.508Z,0.63
2022-07-26T14:17:18.787Z,0.60
2022-07-26T14:19:50.818Z,0.70
2022-07-26T14:22:23.242Z,0.60
2022-07-26T14:24:54.173Z,0.50
2022-07-26T14:27:25.304Z,0.70
2022-07-26T14:29:56.323Z,0.50
2022-07-26T14:32:27.331Z,0.70
2022-07-26T14:34:58.412Z,0.60
2022-07-26T14:37:41.602Z,0.50
2022-07-26T14:40:17.675Z,0.60
2022-07-26T14:42:49.029Z,0.60
2022-07-26T14:45:20.072Z,0.70
2022-07-26T14:47:51.077Z,0.50
2022-07-26T14:50:28.482Z,0.50
2022-07-26T14:52:59.477Z,0.50
2022-07-26T14:55:30.449Z,0.70
2022-07-26T14:58:01.406Z,0.60
2022-07-26T15:00:32.671Z,0.50
2022-07-26T15:03:03.813Z,0.80
2022-07-26T15:05:34.817Z,0.70
2022-07-26T15:08:06.410Z,0.77
2022-07-26T15:10:37.555Z,0.60
2022-07-26T15:13:09.244Z,0.70
2022-07-26T15:15:40.335Z,0.70
2022-07-26T15:18:11.362Z,0.60
2022-07-26T15:20:42.731Z,0.70
2022-07-26T15:23:15.239Z,0.60
2022-07-26T15:25:48.752Z,0.77
2022-07-26T15:28:20.013Z,0.60
2022-07-26T15:30:51.249Z,0.63
2022-07-26T15:33:23.079Z,0.80
2022-07-26T15:35:55.464Z,0.60
2022-07-26T15:38:26.453Z,0.60
2022-07-26T15:40:57.551Z,0.60
2022-07-26T15:43:48.163Z,0.60
2022-07-26T15:46:19.909Z,0.60
2022-07-26T15:48:53.191Z,0.63
2022-07-26T15:51:24.698Z,0.70
2022-07-26T15:53:55.892Z,0.70
2022-07-26T15:56:26.858Z,0.50
2022-07-26T15:58:58.163Z,0.70
2022-07-26T16:01:29.384Z,0.70
2022-07-26T16:04:01.490Z,0.60
2022-07-26T16:06:34.137Z,0.67
2022-07-26T16:09:16.453Z,0.80
2022-07-26T16:11:48.993Z,0.60
2022-07-26T16:14:20.154Z,0.60
2022-07-26T16:16:51.932Z,0.60
2022-07-26T16:19:22.944Z,0.70
2022-07-26T16:21:54.953Z,0.70
2022-07-26T16:24:26.146Z,0.70
2022-07-26T16:26:57.189Z,0.60
2022-07-26T16:29:28.231Z,0.70
2022-07-26T16:31:59.371Z,0.70
2022-07-26T16:34:32.579Z,0.70
2022-07-26T16:37:04.323Z,0.80
2022-07-26T16:39:35.636Z,0.75
2022-07-26T16:42:07.547Z,0.70
2022-07-26T16:44:39.321Z,1.30
2022-07-26T16:47:10.346Z,1.20
2022-07-26T16:49:41.510Z,0.90
2022-07-26T16:52:12.493Z,0.83
2022-07-26T16:54:43.767Z,0.80
2022-07-26T16:57:14.882Z,0.80
2022-07-26T16:59:45.986Z,0.60
2022-07-26T17:02:17.039Z,0.77
2022-07-26T17:04:48.243Z,0.70
2022-07-26T17:07:26.630Z,0.80
2022-07-26T17:09:57.942Z,0.90
2022-07-26T17:12:28.972Z,0.67
2022-07-26T17:15:01.083Z,0.70
2022-07-26T17:17:32.932Z,0.87
2022-07-26T17:20:04.815Z,0.70
2022-07-26T17:22:35.959Z,0.70
2022-07-26T17:25:08.078Z,0.80
2022-07-26T17:27:39.178Z,0.70
2022-07-26T17:30:11.221Z,0.57
2022-07-26T17:32:43.290Z,0.83
2022-07-26T17:35:14.503Z,0.83
2022-07-26T17:37:45.490Z,0.60
2022-07-26T17:40:18.480Z,0.90
2022-07-26T17:42:49.916Z,0.90
2022-07-26T17:45:21.149Z,0.70
2022-07-26T17:47:52.149Z,0.80
2022-07-26T17:50:39.007Z,0.70
2022-07-26T17:53:10.018Z,0.60
2022-07-26T17:55:41.119Z,0.70
2022-07-26T17:58:12.162Z,0.70
2022-07-26T18:00:43.247Z,3.50
2022-07-26T18:03:14.205Z,1.30
2022-07-26T18:05:45.348Z,0.80
2022-07-26T18:08:17.076Z,0.73
2022-07-26T18:10:51.258Z,0.80
2022-07-26T18:13:23.108Z,0.90
2022-07-26T18:15:55.841Z,0.90
2022-07-26T18:18:26.961Z,0.90
2022-07-26T18:20:58.139Z,1.13
2022-07-26T18:23:29.207Z,0.80
2022-07-26T18:26:00.255Z,0.77
2022-07-26T18:28:31.262Z,0.80
2022-07-26T18:31:02.380Z,0.80
2022-07-26T18:33:33.609Z,0.97
2022-07-26T18:36:04.999Z,1.20
2022-07-26T18:38:36.870Z,0.90
2022-07-26T18:41:07.979Z,0.80
2022-07-26T18:43:39.608Z,0.93
2022-07-26T18:46:11.041Z,1.07
2022-07-26T18:48:42.209Z,1.30
2022-07-26T18:51:14.051Z,0.83
2022-07-26T18:53:45.065Z,0.97
2022-07-26T18:56:17.526Z,1.00
2022-07-26T18:58:48.649Z,0.80
2022-07-26T19:01:19.854Z,1.03
2022-07-26T19:03:51.082Z,1.00
2022-07-26T19:06:22.240Z,0.80
2022-07-26T19:08:53.250Z,1.03
2022-07-26T19:11:26.693Z,1.00
2022-07-26T19:13:57.663Z,1.00
2022-07-26T19:16:30.446Z,1.00
2022-07-26T19:19:01.555Z,1.10
2022-07-26T19:21:32.725Z,0.70
2022-07-26T19:24:04.263Z,0.90
2022-07-26T19:26:36.036Z,1.00
2022-07-26T19:29:07.209Z,1.10
2022-07-26T19:31:40.328Z,0.90
2022-07-26T19:34:15.209Z,1.23
2022-07-26T19:36:46.301Z,1.07
2022-07-26T19:39:17.292Z,1.03
2022-07-26T19:41:48.282Z,1.07
2022-07-26T19:44:19.345Z,1.10
2022-07-26T19:46:54.201Z,1.00
2022-07-26T19:49:29.071Z,1.23
2022-07-26T19:52:00.094Z,0.87
2022-07-26T19:54:31.081Z,1.00
2022-07-26T19:57:02.186Z,1.20
2022-07-26T19:59:33.248Z,1.10
2022-07-26T20:02:05.551Z,1.43
2022-07-26T20:04:36.723Z,1.50
2022-07-26T20:07:07.705Z,1.40
2022-07-26T20:09:38.756Z,1.17
2022-07-26T20:12:09.686Z,1.20
2022-07-26T20:14:40.704Z,1.10
2022-07-26T20:17:11.939Z,1.30
2022-07-26T20:19:44.593Z,1.00
2022-07-26T20:22:15.490Z,1.10
2022-07-26T20:24:46.421Z,1.30
2022-07-26T20:27:17.299Z,1.40
2022-07-26T20:29:48.191Z,1.67
2022-07-26T20:32:19.465Z,1.30
2022-07-26T20:34:50.354Z,1.40
2022-07-26T20:37:21.224Z,1.30
2022-07-26T20:39:52.373Z,1.50
2022-07-26T20:42:23.285Z,1.37
2022-07-26T20:44:54.780Z,1.30
2022-07-26T20:47:26.690Z,1.60
2022-07-26T20:50:02.974Z,1.47
2022-07-26T20:52:34.437Z,1.30
2022-07-26T20:55:06.195Z,1.20
2022-07-26T20:57:37.568Z,1.37
2022-07-26T21:00:11.209Z,1.30
2022-07-26T21:02:42.649Z,1.43
2022-07-26T21:05:13.900Z,1.40
2022-07-26T21:07:58.961Z,1.10
2022-07-26T21:10:30.702Z,1.30
2022-07-26T21:13:01.626Z,1.30
2022-07-26T21:15:32.815Z,1.40
2022-07-26T21:18:04.009Z,1.20
2022-07-26T21:20:34.940Z,1.50
2022-07-26T21:23:16.721Z,1.37
2022-07-26T21:25:48.778Z,1.50
2022-07-26T21:28:29.290Z,1.43
2022-07-26T21:31:00.177Z,1.40
2022-07-26T21:33:31.058Z,1.60
2022-07-26T21:36:01.986Z,1.40
2022-07-26T21:38:33.695Z,1.40
2022-07-26T21:41:04.601Z,1.47
2022-07-26T21:43:35.786Z,1.20
2022-07-26T21:46:12.171Z,1.60
2022-07-26T21:48:43.779Z,1.20
2022-07-26T21:51:14.774Z,1.00
2022-07-26T21:53:45.669Z,1.50
2022-07-26T21:56:16.587Z,1.27
2022-07-26T21:58:47.454Z,1.33
2022-07-26T22:01:18.470Z,1.30
2022-07-26T22:03:49.369Z,1.33
2022-07-26T22:06:20.328Z,1.67
2022-07-26T22:08:51.256Z,1.30
2022-07-26T22:11:22.260Z,1.37
2022-07-26T22:13:53.656Z,1.30
2022-07-26T22:16:24.643Z,1.37
2022-07-26T22:18:55.547Z,1.20
2022-07-26T22:21:26.402Z,1.63
2022-07-26T22:23:57.301Z,1.40
2022-07-26T22:26:31.125Z,1.50
2022-07-26T22:29:02.076Z,1.40
2022-07-26T22:31:32.987Z,1.30
2022-07-26T22:34:03.976Z,1.50
2022-07-26T22:36:34.889Z,1.20
2022-07-26T22:39:05.859Z,1.20
2022-07-26T22:42:05.102Z,1.30
2022-07-26T22:44:30.846Z,1.20
2022-07-26T22:47:01.800Z,1.30
2022-07-26T22:49:32.858Z,1.10
2022-07-26T22:52:03.996Z,1.20
2022-07-26T22:54:34.938Z,1.20
2022-07-26T22:57:05.903Z,1.00
2022-07-26T22:59:39.584Z,1.00
2022-07-26T23:02:10.502Z,1.20
2022-07-26T23:04:41.407Z,1.20
2022-07-26T23:07:12.746Z,1.20
2022-07-26T23:09:44.473Z,1.40
2022-07-26T23:12:15.400Z,1.40
2022-07-26T23:14:46.291Z,1.40
2022-07-26T23:17:17.266Z,1.30
2022-07-26T23:19:48.151Z,1.10
2022-07-26T23:22:19.062Z,1.40
2022-07-26T23:24:50.026Z,1.27
2022-07-26T23:27:21.021Z,1.27
2022-07-26T23:29:51.930Z,1.30
2022-07-26T23:32:22.902Z,1.30
2022-07-26T23:34:53.776Z,1.20
2022-07-26T23:37:24.665Z,1.20
2022-07-26T23:39:55.560Z,1.30
2022-07-26T23:42:26.469Z,1.10
2022-07-26T23:44:57.361Z,1.10
2022-07-26T23:47:28.258Z,1.10
2022-07-26T23:49:59.115Z,1.50
2022-07-26T23:52:30.012Z,1.20
2022-07-26T23:55:01.247Z,1.30
2022-07-26T23:57:32.134Z,1.40
